sensor_id;sensor_type;location;lat;lon;timestamp;P1;durP1;ratioP1;P2;durP2;ratioP2
19195;SDS011;9730;48.926;11.376;2022-08-14T00:00:40;6.28;;;5.60;;
19195;SDS011;9730;48.926;11.376;2022-08-14T00:03:14;7.88;;;5.88;;
19195;SDS011;9730;48.926;11.376;2022-08-14T00:05:43;6.03;;;5.35;;
19195;SDS011;9730;48.926;11.376;2022-08-14T00:08:10;6.15;;;5.55;;
19195;SDS011;9730;48.926;11.376;2022-08-14T00:10:36;6.00;;;5.40;;
19195;SDS011;9730;48.926;11.376;2022-08-14T00:13:03;7.53;;;6.70;;
19195;SDS011;9730;48.926;11.376;2022-08-14T00:15:31;10.20;;;6.55;;
19195;SDS011;9730;48.926;11.376;2022-08-14T00:17:59;7.65;;;6.57;;
19195;SDS011;9730;48.926;11.376;2022-08-14T00:20:29;10.32;;;6.95;;
19195;SDS011;9730;48.926;11.376;2022-08-14T00:22:57;8.15;;;6.20;;
19195;SDS011;9730;48.926;11.376;2022-08-14T00:25:25;6.88;;;6.28;;
19195;SDS011;9730;48.926;11.376;2022-08-14T00:27:52;7.65;;;6.43;;
19195;SDS011;9730;48.926;11.376;2022-08-14T00:30:19;6.72;;;6.03;;
19195;SDS011;9730;48.926;11.376;2022-08-14T00:32:46;8.75;;;7.10;;
19195;SDS011;9730;48.926;11.376;2022-08-14T00:35:13;7.25;;;6.57;;
19195;SDS011;9730;48.926;11.376;2022-08-14T00:37:43;8.43;;;7.00;;
19195;SDS011;9730;48.926;11.376;2022-08-14T00:40:11;7.88;;;7.07;;
19195;SDS011;9730;48.926;11.376;2022-08-14T00:42:39;9.43;;;6.82;;
19195;SDS011;9730;48.926;11.376;2022-08-14T00:45:07;7.70;;;6.68;;
19195;SDS011;9730;48.926;11.376;2022-08-14T00:47:36;9.88;;;6.90;;
19195;SDS011;9730;48.926;11.376;2022-08-14T00:50:03;8.25;;;7.22;;
19195;SDS011;9730;48.926;11.376;2022-08-14T00:52:32;10.10;;;6.50;;
19195;SDS011;9730;48.926;11.376;2022-08-14T00:55:01;8.82;;;6.57;;
19195;SDS011;9730;48.926;11.376;2022-08-14T00:57:28;6.55;;;5.93;;
19195;SDS011;9730;48.926;11.376;2022-08-14T00:59:56;10.48;;;6.60;;
19195;SDS011;9730;48.926;11.376;2022-08-14T01:02:24;9.37;;;5.90;;
19195;SDS011;9730;48.926;11.376;2022-08-14T01:04:53;16.85;;;7.38;;
19195;SDS011;9730;48.926;11.376;2022-08-14T01:07:23;10.52;;;6.78;;
19195;SDS011;9730;48.926;11.376;2022-08-14T01:09:52;7.78;;;7.07;;
19195;SDS011;9730;48.926;11.376;2022-08-14T01:12:22;7.65;;;6.75;;
19195;SDS011;9730;48.926;11.376;2022-08-14T01:14:49;7.20;;;6.35;;
19195;SDS011;9730;48.926;11.376;2022-08-14T01:17:17;8.57;;;7.15;;
19195;SDS011;9730;48.926;11.376;2022-08-14T01:19:44;9.27;;;6.47;;
19195;SDS011;9730;48.926;11.376;2022-08-14T01:22:29;8.05;;;7.25;;
19195;SDS011;9730;48.926;11.376;2022-08-14T01:27:25;7.85;;;7.07;;
19195;SDS011;9730;48.926;11.376;2022-08-14T01:29:54;8.00;;;6.38;;
19195;SDS011;9730;48.926;11.376;2022-08-14T01:32:22;7.35;;;6.55;;
19195;SDS011;9730;48.926;11.376;2022-08-14T01:34:50;7.88;;;6.18;;
19195;SDS011;9730;48.926;11.376;2022-08-14T01:37:17;8.23;;;7.32;;
19195;SDS011;9730;48.926;11.376;2022-08-14T01:39:48;9.15;;;6.80;;
19195;SDS011;9730;48.926;11.376;2022-08-14T01:42:15;9.02;;;7.35;;
19195;SDS011;9730;48.926;11.376;2022-08-14T01:44:42;8.93;;;7.28;;
19195;SDS011;9730;48.926;11.376;2022-08-14T01:47:09;8.98;;;7.45;;
19195;SDS011;9730;48.926;11.376;2022-08-14T01:52:04;8.40;;;7.43;;
19195;SDS011;9730;48.926;11.376;2022-08-14T01:54:32;8.27;;;7.43;;
19195;SDS011;9730;48.926;11.376;2022-08-14T01:57:00;8.82;;;7.80;;
19195;SDS011;9730;48.926;11.376;2022-08-14T01:59:27;10.03;;;8.40;;
19195;SDS011;9730;48.926;11.376;2022-08-14T02:01:57;7.47;;;6.68;;
19195;SDS011;9730;48.926;11.376;2022-08-14T02:04:27;9.55;;;7.38;;
19195;SDS011;9730;48.926;11.376;2022-08-14T02:06:55;8.82;;;7.50;;
19195;SDS011;9730;48.926;11.376;2022-08-14T02:09:22;8.50;;;7.70;;
19195;SDS011;9730;48.926;11.376;2022-08-14T02:11:49;8.93;;;8.00;;
19195;SDS011;9730;48.926;11.376;2022-08-14T02:14:18;9.32;;;7.78;;
19195;SDS011;9730;48.926;11.376;2022-08-14T02:16:45;10.23;;;7.55;;
19195;SDS011;9730;48.926;11.376;2022-08-14T02:19:18;10.00;;;8.02;;
19195;SDS011;9730;48.926;11.376;2022-08-14T02:21:46;8.90;;;7.85;;
19195;SDS011;9730;48.926;11.376;2022-08-14T02:24:15;8.68;;;7.85;;
19195;SDS011;9730;48.926;11.376;2022-08-14T02:26:43;8.80;;;7.90;;
19195;SDS011;9730;48.926;11.376;2022-08-14T02:29:12;7.72;;;6.93;;
19195;SDS011;9730;48.926;11.376;2022-08-14T02:31:44;8.70;;;7.80;;
19195;SDS011;9730;48.926;11.376;2022-08-14T02:34:14;9.20;;;8.02;;
19195;SDS011;9730;48.926;11.376;2022-08-14T02:36:42;8.82;;;7.75;;
19195;SDS011;9730;48.926;11.376;2022-08-14T02:39:10;8.60;;;7.68;;
19195;SDS011;9730;48.926;11.376;2022-08-14T02:41:38;12.75;;;8.07;;
19195;SDS011;9730;48.926;11.376;2022-08-14T02:44:06;9.18;;;8.23;;
19195;SDS011;9730;48.926;11.376;2022-08-14T02:46:34;8.85;;;7.47;;
19195;SDS011;9730;48.926;11.376;2022-08-14T02:49:03;8.77;;;7.88;;
19195;SDS011;9730;48.926;11.376;2022-08-14T02:51:30;11.70;;;8.63;;
19195;SDS011;9730;48.926;11.376;2022-08-14T02:53:57;8.98;;;8.07;;
19195;SDS011;9730;48.926;11.376;2022-08-14T02:56:25;9.20;;;7.93;;
19195;SDS011;9730;48.926;11.376;2022-08-14T02:58:54;13.35;;;9.30;;
19195;SDS011;9730;48.926;11.376;2022-08-14T03:01:22;9.93;;;8.80;;
19195;SDS011;9730;48.926;11.376;2022-08-14T03:03:52;9.98;;;8.93;;
19195;SDS011;9730;48.926;11.376;2022-08-14T03:06:20;12.65;;;8.80;;
19195;SDS011;9730;48.926;11.376;2022-08-14T03:08:48;10.10;;;8.45;;
19195;SDS011;9730;48.926;11.376;2022-08-14T03:11:14;9.63;;;8.27;;
19195;SDS011;9730;48.926;11.376;2022-08-14T03:13:44;8.60;;;7.68;;
19195;SDS011;9730;48.926;11.376;2022-08-14T03:16:12;8.45;;;7.55;;
19195;SDS011;9730;48.926;11.376;2022-08-14T03:18:40;9.65;;;8.65;;
19195;SDS011;9730;48.926;11.376;2022-08-14T03:21:09;10.13;;;8.98;;
19195;SDS011;9730;48.926;11.376;2022-08-14T03:23:39;11.68;;;8.48;;
19195;SDS011;9730;48.926;11.376;2022-08-14T03:26:06;8.68;;;7.82;;
19195;SDS011;9730;48.926;11.376;2022-08-14T03:31:04;9.80;;;8.80;;
19195;SDS011;9730;48.926;11.376;2022-08-14T03:33:32;10.60;;;8.63;;
19195;SDS011;9730;48.926;11.376;2022-08-14T03:35:58;10.45;;;9.30;;
19195;SDS011;9730;48.926;11.376;2022-08-14T03:38:25;12.18;;;9.40;;
19195;SDS011;9730;48.926;11.376;2022-08-14T03:40:53;10.57;;;9.48;;
19195;SDS011;9730;48.926;11.376;2022-08-14T03:43:20;12.02;;;9.50;;
19195;SDS011;9730;48.926;11.376;2022-08-14T03:45:46;10.68;;;9.27;;
19195;SDS011;9730;48.926;11.376;2022-08-14T03:48:17;12.75;;;9.32;;
19195;SDS011;9730;48.926;11.376;2022-08-14T03:50:44;11.00;;;9.25;;
19195;SDS011;9730;48.926;11.376;2022-08-14T03:53:11;11.38;;;9.38;;
19195;SDS011;9730;48.926;11.376;2022-08-14T03:55:38;9.75;;;8.80;;
19195;SDS011;9730;48.926;11.376;2022-08-14T03:58:06;11.90;;;9.70;;
19195;SDS011;9730;48.926;11.376;2022-08-14T04:03:01;10.77;;;9.68;;
19195;SDS011;9730;48.926;11.376;2022-08-14T04:05:30;12.30;;;9.20;;
19195;SDS011;9730;48.926;11.376;2022-08-14T04:07:56;10.40;;;9.30;;
19195;SDS011;9730;48.926;11.376;2022-08-14T04:10:23;10.35;;;9.23;;
19195;SDS011;9730;48.926;11.376;2022-08-14T04:12:50;9.70;;;8.70;;
19195;SDS011;9730;48.926;11.376;2022-08-14T04:15:18;11.68;;;8.23;;
19195;SDS011;9730;48.926;11.376;2022-08-14T04:17:45;11.63;;;9.57;;
19195;SDS011;9730;48.926;11.376;2022-08-14T04:20:12;12.55;;;9.57;;
19195;SDS011;9730;48.926;11.376;2022-08-14T04:22:39;11.05;;;9.20;;
19195;SDS011;9730;48.926;11.376;2022-08-14T04:25:07;10.40;;;9.30;;
19195;SDS011;9730;48.926;11.376;2022-08-14T04:27:35;11.30;;;9.70;;
19195;SDS011;9730;48.926;11.376;2022-08-14T04:30:02;10.32;;;9.13;;
19195;SDS011;9730;48.926;11.376;2022-08-14T04:32:31;11.05;;;9.43;;
19195;SDS011;9730;48.926;11.376;2022-08-14T04:34:58;10.15;;;9.02;;
19195;SDS011;9730;48.926;11.376;2022-08-14T04:37:24;13.98;;;10.70;;
19195;SDS011;9730;48.926;11.376;2022-08-14T04:40:09;10.90;;;9.65;;
19195;SDS011;9730;48.926;11.376;2022-08-14T04:42:55;11.73;;;10.27;;
19195;SDS011;9730;48.926;11.376;2022-08-14T04:45:39;10.25;;;8.77;;
19195;SDS011;9730;48.926;11.376;2022-08-14T04:48:08;9.27;;;8.35;;
19195;SDS011;9730;48.926;11.376;2022-08-14T04:50:38;11.30;;;9.20;;
19195;SDS011;9730;48.926;11.376;2022-08-14T04:53:06;13.93;;;11.23;;
19195;SDS011;9730;48.926;11.376;2022-08-14T04:55:34;11.23;;;9.95;;
19195;SDS011;9730;48.926;11.376;2022-08-14T04:58:02;10.50;;;9.40;;
19195;SDS011;9730;48.926;11.376;2022-08-14T05:00:29;12.23;;;10.90;;
19195;SDS011;9730;48.926;11.376;2022-08-14T05:02:56;12.75;;;10.95;;
19195;SDS011;9730;48.926;11.376;2022-08-14T05:05:24;13.85;;;10.60;;
19195;SDS011;9730;48.926;11.376;2022-08-14T05:07:51;13.13;;;11.27;;
19195;SDS011;9730;48.926;11.376;2022-08-14T05:10:17;11.75;;;10.55;;
19195;SDS011;9730;48.926;11.376;2022-08-14T05:12:50;14.82;;;10.35;;
19195;SDS011;9730;48.926;11.376;2022-08-14T05:15:17;12.48;;;10.25;;
19195;SDS011;9730;48.926;11.376;2022-08-14T05:17:45;11.10;;;9.90;;
19195;SDS011;9730;48.926;11.376;2022-08-14T05:20:13;10.90;;;9.38;;
19195;SDS011;9730;48.926;11.376;2022-08-14T05:22:41;9.95;;;8.95;;
19195;SDS011;9730;48.926;11.376;2022-08-14T05:25:07;10.68;;;9.25;;
19195;SDS011;9730;48.926;11.376;2022-08-14T05:27:34;11.82;;;10.27;;
19195;SDS011;9730;48.926;11.376;2022-08-14T05:30:02;11.32;;;10.02;;
19195;SDS011;9730;48.926;11.376;2022-08-14T05:32:30;10.95;;;9.35;;
19195;SDS011;9730;48.926;11.376;2022-08-14T05:34:57;14.70;;;10.43;;
19195;SDS011;9730;48.926;11.376;2022-08-14T05:37:24;11.55;;;9.45;;
19195;SDS011;9730;48.926;11.376;2022-08-14T05:39:53;10.55;;;9.52;;
19195;SDS011;9730;48.926;11.376;2022-08-14T05:42:20;11.73;;;9.93;;
19195;SDS011;9730;48.926;11.376;2022-08-14T05:44:47;13.70;;;9.93;;
19195;SDS011;9730;48.926;11.376;2022-08-14T05:47:13;17.55;;;10.23;;
19195;SDS011;9730;48.926;11.376;2022-08-14T05:49:40;15.57;;;10.80;;
19195;SDS011;9730;48.926;11.376;2022-08-14T05:52:06;13.85;;;10.23;;
19195;SDS011;9730;48.926;11.376;2022-08-14T05:54:33;10.98;;;9.80;;
19195;SDS011;9730;48.926;11.376;2022-08-14T05:57:01;13.00;;;9.57;;
19195;SDS011;9730;48.926;11.376;2022-08-14T05:59:28;14.48;;;11.13;;
19195;SDS011;9730;48.926;11.376;2022-08-14T06:01:54;14.55;;;11.63;;
19195;SDS011;9730;48.926;11.376;2022-08-14T06:04:21;13.90;;;11.00;;
19195;SDS011;9730;48.926;11.376;2022-08-14T06:06:48;15.45;;;12.05;;
19195;SDS011;9730;48.926;11.376;2022-08-14T06:09:14;14.40;;;11.88;;
19195;SDS011;9730;48.926;11.376;2022-08-14T06:11:41;13.63;;;11.23;;
19195;SDS011;9730;48.926;11.376;2022-08-14T06:14:09;13.48;;;11.98;;
19195;SDS011;9730;48.926;11.376;2022-08-14T06:16:35;11.68;;;10.48;;
19195;SDS011;9730;48.926;11.376;2022-08-14T06:19:02;13.55;;;11.07;;
19195;SDS011;9730;48.926;11.376;2022-08-14T06:21:30;14.77;;;11.53;;
19195;SDS011;9730;48.926;11.376;2022-08-14T06:23:57;16.08;;;11.93;;
19195;SDS011;9730;48.926;11.376;2022-08-14T06:26:23;12.48;;;11.00;;
19195;SDS011;9730;48.926;11.376;2022-08-14T06:28:50;18.63;;;11.30;;
19195;SDS011;9730;48.926;11.376;2022-08-14T06:31:18;16.52;;;12.13;;
19195;SDS011;9730;48.926;11.376;2022-08-14T06:33:45;13.37;;;11.93;;
19195;SDS011;9730;48.926;11.376;2022-08-14T06:36:11;12.07;;;10.40;;
19195;SDS011;9730;48.926;11.376;2022-08-14T06:38:37;11.73;;;9.57;;
19195;SDS011;9730;48.926;11.376;2022-08-14T06:41:04;9.52;;;8.55;;
19195;SDS011;9730;48.926;11.376;2022-08-14T06:43:30;10.70;;;9.10;;
19195;SDS011;9730;48.926;11.376;2022-08-14T06:45:57;9.48;;;8.32;;
19195;SDS011;9730;48.926;11.376;2022-08-14T06:48:26;9.60;;;8.60;;
19195;SDS011;9730;48.926;11.376;2022-08-14T06:50:53;9.43;;;7.43;;
19195;SDS011;9730;48.926;11.376;2022-08-14T06:53:19;10.02;;;7.50;;
19195;SDS011;9730;48.926;11.376;2022-08-14T06:55:47;8.07;;;7.38;;
19195;SDS011;9730;48.926;11.376;2022-08-14T06:58:14;9.03;;;8.13;;
19195;SDS011;9730;48.926;11.376;2022-08-14T07:00:42;8.75;;;7.80;;
19195;SDS011;9730;48.926;11.376;2022-08-14T07:03:32;7.90;;;7.10;;
19195;SDS011;9730;48.926;11.376;2022-08-14T07:06:16;10.23;;;7.57;;
19195;SDS011;9730;48.926;11.376;2022-08-14T07:08:43;8.25;;;7.45;;
19195;SDS011;9730;48.926;11.376;2022-08-14T07:11:10;8.20;;;7.40;;
19195;SDS011;9730;48.926;11.376;2022-08-14T07:13:37;8.90;;;7.93;;
19195;SDS011;9730;48.926;11.376;2022-08-14T07:16:04;8.02;;;7.32;;
19195;SDS011;9730;48.926;11.376;2022-08-14T07:18:33;8.23;;;7.30;;
19195;SDS011;9730;48.926;11.376;2022-08-14T07:21:01;8.98;;;7.20;;
19195;SDS011;9730;48.926;11.376;2022-08-14T07:23:28;7.18;;;6.57;;
19195;SDS011;9730;48.926;11.376;2022-08-14T07:25:55;7.13;;;6.43;;
19195;SDS011;9730;48.926;11.376;2022-08-14T07:28:24;7.95;;;6.53;;
19195;SDS011;9730;48.926;11.376;2022-08-14T07:30:54;6.95;;;6.25;;
19195;SDS011;9730;48.926;11.376;2022-08-14T07:33:22;6.70;;;6.10;;
19195;SDS011;9730;48.926;11.376;2022-08-14T07:35:51;7.18;;;6.47;;
19195;SDS011;9730;48.926;11.376;2022-08-14T07:38:19;8.48;;;5.97;;
19195;SDS011;9730;48.926;11.376;2022-08-14T07:40:48;5.82;;;5.25;;
19195;SDS011;9730;48.926;11.376;2022-08-14T07:43:15;6.50;;;5.90;;
19195;SDS011;9730;48.926;11.376;2022-08-14T07:45:43;7.68;;;5.75;;
19195;SDS011;9730;48.926;11.376;2022-08-14T07:48:09;8.80;;;6.10;;
19195;SDS011;9730;48.926;11.376;2022-08-14T07:50:36;5.93;;;5.43;;
19195;SDS011;9730;48.926;11.376;2022-08-14T07:53:05;7.30;;;5.97;;
19195;SDS011;9730;48.926;11.376;2022-08-14T07:55:32;6.38;;;5.65;;
19195;SDS011;9730;48.926;11.376;2022-08-14T07:57:58;7.10;;;6.13;;
19195;SDS011;9730;48.926;11.376;2022-08-14T08:00:25;6.45;;;5.85;;
19195;SDS011;9730;48.926;11.376;2022-08-14T08:02:53;7.07;;;5.93;;
19195;SDS011;9730;48.926;11.376;2022-08-14T08:05:21;7.80;;;7.00;;
19195;SDS011;9730;48.926;11.376;2022-08-14T08:07:49;7.50;;;6.53;;
19195;SDS011;9730;48.926;11.376;2022-08-14T08:10:19;6.47;;;5.88;;
19195;SDS011;9730;48.926;11.376;2022-08-14T08:12:57;6.70;;;6.10;;
19195;SDS011;9730;48.926;11.376;2022-08-14T08:15:26;6.60;;;6.00;;
19195;SDS011;9730;48.926;11.376;2022-08-14T08:17:54;6.90;;;6.30;;
19195;SDS011;9730;48.926;11.376;2022-08-14T08:20:21;7.63;;;5.72;;
19195;SDS011;9730;48.926;11.376;2022-08-14T08:25:17;7.68;;;6.07;;
19195;SDS011;9730;48.926;11.376;2022-08-14T08:30:19;6.32;;;5.75;;
19195;SDS011;9730;48.926;11.376;2022-08-14T08:32:46;6.55;;;5.95;;
19195;SDS011;9730;48.926;11.376;2022-08-14T08:35:16;6.63;;;6.03;;
19195;SDS011;9730;48.926;11.376;2022-08-14T08:37:45;8.73;;;6.22;;
19195;SDS011;9730;48.926;11.376;2022-08-14T08:40:21;6.88;;;6.25;;
19195;SDS011;9730;48.926;11.376;2022-08-14T08:42:49;6.45;;;5.55;;
19195;SDS011;9730;48.926;11.376;2022-08-14T08:45:16;6.28;;;5.78;;
19195;SDS011;9730;48.926;11.376;2022-08-14T08:47:43;6.93;;;5.57;;
19195;SDS011;9730;48.926;11.376;2022-08-14T08:52:57;5.50;;;5.10;;
19195;SDS011;9730;48.926;11.376;2022-08-14T08:55:27;7.38;;;5.38;;
19195;SDS011;9730;48.926;11.376;2022-08-14T08:57:56;5.45;;;4.93;;
19195;SDS011;9730;48.926;11.376;2022-08-14T09:00:23;7.07;;;5.55;;
19195;SDS011;9730;48.926;11.376;2022-08-14T09:02:56;7.53;;;4.85;;
19195;SDS011;9730;48.926;11.376;2022-08-14T09:05:26;5.85;;;5.05;;
19195;SDS011;9730;48.926;11.376;2022-08-14T09:07:52;6.70;;;5.20;;
19195;SDS011;9730;48.926;11.376;2022-08-14T09:10:19;7.90;;;4.82;;
19195;SDS011;9730;48.926;11.376;2022-08-14T09:12:47;6.20;;;4.47;;
19195;SDS011;9730;48.926;11.376;2022-08-14T09:17:41;5.53;;;4.45;;
19195;SDS011;9730;48.926;11.376;2022-08-14T09:20:09;5.00;;;4.60;;
19195;SDS011;9730;48.926;11.376;2022-08-14T09:25:04;6.80;;;4.70;;
19195;SDS011;9730;48.926;11.376;2022-08-14T09:27:31;4.80;;;4.15;;
19195;SDS011;9730;48.926;11.376;2022-08-14T09:29:59;6.20;;;4.45;;
19195;SDS011;9730;48.926;11.376;2022-08-14T09:32:27;4.97;;;4.57;;
19195;SDS011;9730;48.926;11.376;2022-08-14T09:35:00;4.57;;;4.05;;
19195;SDS011;9730;48.926;11.376;2022-08-14T09:37:36;5.30;;;4.80;;
19195;SDS011;9730;48.926;11.376;2022-08-14T09:40:11;5.28;;;4.78;;
19195;SDS011;9730;48.926;11.376;2022-08-14T09:42:47;5.40;;;4.22;;
19195;SDS011;9730;48.926;11.376;2022-08-14T09:45:23;5.00;;;4.45;;
19195;SDS011;9730;48.926;11.376;2022-08-14T09:47:56;5.25;;;4.78;;
19195;SDS011;9730;48.926;11.376;2022-08-14T09:50:25;7.88;;;4.43;;
19195;SDS011;9730;48.926;11.376;2022-08-14T09:52:55;5.93;;;5.32;;
19195;SDS011;9730;48.926;11.376;2022-08-14T09:55:23;5.07;;;4.57;;
19195;SDS011;9730;48.926;11.376;2022-08-14T09:57:50;4.78;;;4.03;;
19195;SDS011;9730;48.926;11.376;2022-08-14T10:00:18;7.03;;;4.70;;
19195;SDS011;9730;48.926;11.376;2022-08-14T10:03:06;5.18;;;4.78;;
19195;SDS011;9730;48.926;11.376;2022-08-14T10:05:35;5.65;;;4.85;;
19195;SDS011;9730;48.926;11.376;2022-08-14T10:08:02;4.43;;;4.05;;
19195;SDS011;9730;48.926;11.376;2022-08-14T10:10:30;4.53;;;4.13;;
19195;SDS011;9730;48.926;11.376;2022-08-14T10:12:58;6.45;;;4.28;;
19195;SDS011;9730;48.926;11.376;2022-08-14T10:15:28;5.30;;;4.50;;
19195;SDS011;9730;48.926;11.376;2022-08-14T10:18:04;5.63;;;4.63;;
19195;SDS011;9730;48.926;11.376;2022-08-14T10:20:32;4.68;;;4.28;;
19195;SDS011;9730;48.926;11.376;2022-08-14T10:23:07;5.20;;;4.40;;
19195;SDS011;9730;48.926;11.376;2022-08-14T10:25:38;8.02;;;4.90;;
19195;SDS011;9730;48.926;11.376;2022-08-14T10:28:08;6.60;;;4.78;;
19195;SDS011;9730;48.926;11.376;2022-08-14T10:30:40;4.55;;;4.15;;
19195;SDS011;9730;48.926;11.376;2022-08-14T10:33:11;6.85;;;4.80;;
19195;SDS011;9730;48.926;11.376;2022-08-14T10:35:49;5.72;;;4.65;;
19195;SDS011;9730;48.926;11.376;2022-08-14T10:38:24;7.25;;;5.28;;
19195;SDS011;9730;48.926;11.376;2022-08-14T10:40:51;6.68;;;5.10;;
19195;SDS011;9730;48.926;11.376;2022-08-14T10:43:20;5.45;;;4.95;;
19195;SDS011;9730;48.926;11.376;2022-08-14T10:45:55;5.55;;;5.05;;
19195;SDS011;9730;48.926;11.376;2022-08-14T10:48:26;6.43;;;4.43;;
19195;SDS011;9730;48.926;11.376;2022-08-14T10:50:52;4.68;;;4.28;;
19195;SDS011;9730;48.926;11.376;2022-08-14T10:53:29;4.90;;;4.50;;
19195;SDS011;9730;48.926;11.376;2022-08-14T10:55:57;7.20;;;4.53;;
19195;SDS011;9730;48.926;11.376;2022-08-14T10:58:28;5.88;;;5.38;;
19195;SDS011;9730;48.926;11.376;2022-08-14T11:00:58;6.05;;;4.40;;
19195;SDS011;9730;48.926;11.376;2022-08-14T11:03:36;4.75;;;4.20;;
19195;SDS011;9730;48.926;11.376;2022-08-14T11:06:12;4.85;;;4.45;;
19195;SDS011;9730;48.926;11.376;2022-08-14T11:08:44;5.07;;;4.60;;
19195;SDS011;9730;48.926;11.376;2022-08-14T11:11:12;4.63;;;4.22;;
19195;SDS011;9730;48.926;11.376;2022-08-14T11:13:40;5.20;;;4.03;;
19195;SDS011;9730;48.926;11.376;2022-08-14T11:16:11;4.90;;;4.40;;
19195;SDS011;9730;48.926;11.376;2022-08-14T11:18:42;5.25;;;4.70;;
19195;SDS011;9730;48.926;11.376;2022-08-14T11:21:13;6.85;;;5.50;;
19195;SDS011;9730;48.926;11.376;2022-08-14T11:23:41;4.90;;;4.50;;
19195;SDS011;9730;48.926;11.376;2022-08-14T11:26:11;6.40;;;4.55;;
19195;SDS011;9730;48.926;11.376;2022-08-14T11:28:39;5.72;;;4.68;;
19195;SDS011;9730;48.926;11.376;2022-08-14T11:31:07;5.63;;;5.13;;
19195;SDS011;9730;48.926;11.376;2022-08-14T11:33:38;6.25;;;5.35;;
19195;SDS011;9730;48.926;11.376;2022-08-14T11:36:06;5.68;;;5.18;;
19195;SDS011;9730;48.926;11.376;2022-08-14T11:38:35;5.95;;;5.10;;
19195;SDS011;9730;48.926;11.376;2022-08-14T11:41:02;5.10;;;4.60;;
19195;SDS011;9730;48.926;11.376;2022-08-14T11:43:29;5.30;;;4.80;;
19195;SDS011;9730;48.926;11.376;2022-08-14T11:45:56;4.70;;;4.18;;
19195;SDS011;9730;48.926;11.376;2022-08-14T11:48:23;6.33;;;4.70;;
19195;SDS011;9730;48.926;11.376;2022-08-14T11:50:53;5.93;;;4.95;;
19195;SDS011;9730;48.926;11.376;2022-08-14T11:53:21;6.13;;;4.47;;
19195;SDS011;9730;48.926;11.376;2022-08-14T11:55:53;4.68;;;4.28;;
19195;SDS011;9730;48.926;11.376;2022-08-14T11:58:24;5.85;;;4.65;;
19195;SDS011;9730;48.926;11.376;2022-08-14T12:00:54;4.30;;;4.00;;
19195;SDS011;9730;48.926;11.376;2022-08-14T12:03:33;6.45;;;4.20;;
19195;SDS011;9730;48.926;11.376;2022-08-14T12:06:06;4.75;;;4.35;;
19195;SDS011;9730;48.926;11.376;2022-08-14T12:08:34;4.88;;;4.47;;
19195;SDS011;9730;48.926;11.376;2022-08-14T12:11:02;5.10;;;4.60;;
19195;SDS011;9730;48.926;11.376;2022-08-14T12:13:30;5.55;;;4.13;;
19195;SDS011;9730;48.926;11.376;2022-08-14T12:15:58;5.70;;;4.25;;
19195;SDS011;9730;48.926;11.376;2022-08-14T12:18:28;5.15;;;4.57;;
19195;SDS011;9730;48.926;11.376;2022-08-14T12:20:56;5.28;;;4.78;;
19195;SDS011;9730;48.926;11.376;2022-08-14T12:23:24;6.28;;;5.63;;
19195;SDS011;9730;48.926;11.376;2022-08-14T12:28:27;5.38;;;4.60;;
19195;SDS011;9730;48.926;11.376;2022-08-14T12:30:53;5.10;;;4.70;;
19195;SDS011;9730;48.926;11.376;2022-08-14T12:33:21;5.22;;;4.65;;
19195;SDS011;9730;48.926;11.376;2022-08-14T12:35:50;6.85;;;4.90;;
19195;SDS011;9730;48.926;11.376;2022-08-14T12:38:18;6.45;;;4.85;;
19195;SDS011;9730;48.926;11.376;2022-08-14T12:40:57;7.43;;;4.90;;
19195;SDS011;9730;48.926;11.376;2022-08-14T12:43:26;5.38;;;4.88;;
19195;SDS011;9730;48.926;11.376;2022-08-14T12:45:53;5.82;;;5.20;;
19195;SDS011;9730;48.926;11.376;2022-08-14T12:48:20;7.55;;;4.97;;
19195;SDS011;9730;48.926;11.376;2022-08-14T12:50:48;5.28;;;4.78;;
19195;SDS011;9730;48.926;11.376;2022-08-14T12:53:16;9.90;;;4.68;;
19195;SDS011;9730;48.926;11.376;2022-08-14T12:55:43;8.35;;;4.85;;
19195;SDS011;9730;48.926;11.376;2022-08-14T12:58:12;11.57;;;5.20;;
19195;SDS011;9730;48.926;11.376;2022-08-14T13:03:21;5.55;;;4.75;;
19195;SDS011;9730;48.926;11.376;2022-08-14T13:05:48;5.13;;;4.63;;
19195;SDS011;9730;48.926;11.376;2022-08-14T13:10:43;5.53;;;5.03;;
19195;SDS011;9730;48.926;11.376;2022-08-14T13:13:13;7.32;;;5.28;;
19195;SDS011;9730;48.926;11.376;2022-08-14T13:15:41;6.72;;;5.03;;
19195;SDS011;9730;48.926;11.376;2022-08-14T13:18:09;5.40;;;4.55;;
19195;SDS011;9730;48.926;11.376;2022-08-14T13:20:38;6.45;;;5.03;;
19195;SDS011;9730;48.926;11.376;2022-08-14T13:23:06;4.72;;;4.20;;
19195;SDS011;9730;48.926;11.376;2022-08-14T13:25:34;5.72;;;4.30;;
19195;SDS011;9730;48.926;11.376;2022-08-14T13:28:02;5.28;;;4.25;;
19195;SDS011;9730;48.926;11.376;2022-08-14T13:30:31;5.22;;;4.57;;
19195;SDS011;9730;48.926;11.376;2022-08-14T13:32:58;7.45;;;4.95;;
19195;SDS011;9730;48.926;11.376;2022-08-14T13:35:26;7.22;;;4.05;;
19195;SDS011;9730;48.926;11.376;2022-08-14T13:37:53;6.30;;;4.45;;
19195;SDS011;9730;48.926;11.376;2022-08-14T13:40:20;5.20;;;4.22;;
19195;SDS011;9730;48.926;11.376;2022-08-14T13:42:48;5.00;;;4.50;;
19195;SDS011;9730;48.926;11.376;2022-08-14T13:45:17;7.00;;;4.60;;
19195;SDS011;9730;48.926;11.376;2022-08-14T13:47:47;4.40;;;3.88;;
19195;SDS011;9730;48.926;11.376;2022-08-14T13:50:14;4.35;;;3.85;;
19195;SDS011;9730;48.926;11.376;2022-08-14T13:52:42;5.55;;;3.72;;
19195;SDS011;9730;48.926;11.376;2022-08-14T13:55:10;5.20;;;4.15;;
19195;SDS011;9730;48.926;11.376;2022-08-14T13:57:38;4.77;;;4.07;;
19195;SDS011;9730;48.926;11.376;2022-08-14T14:00:08;4.82;;;4.32;;
19195;SDS011;9730;48.926;11.376;2022-08-14T14:02:40;5.10;;;4.35;;
19195;SDS011;9730;48.926;11.376;2022-08-14T14:05:12;5.10;;;4.55;;
19195;SDS011;9730;48.926;11.376;2022-08-14T14:07:43;4.65;;;4.10;;
19195;SDS011;9730;48.926;11.376;2022-08-14T14:10:13;4.88;;;3.95;;
19195;SDS011;9730;48.926;11.376;2022-08-14T14:15:10;5.15;;;3.70;;
19195;SDS011;9730;48.926;11.376;2022-08-14T14:17:38;4.65;;;3.97;;
19195;SDS011;9730;48.926;11.376;2022-08-14T14:20:06;4.82;;;4.25;;
19195;SDS011;9730;48.926;11.376;2022-08-14T14:22:39;4.05;;;3.65;;
19195;SDS011;9730;48.926;11.376;2022-08-14T14:25:06;3.83;;;3.53;;
19195;SDS011;9730;48.926;11.376;2022-08-14T14:27:34;6.13;;;3.80;;
19195;SDS011;9730;48.926;11.376;2022-08-14T14:30:03;4.20;;;3.80;;
19195;SDS011;9730;48.926;11.376;2022-08-14T14:32:30;4.65;;;4.25;;
19195;SDS011;9730;48.926;11.376;2022-08-14T14:34:58;3.70;;;3.40;;
19195;SDS011;9730;48.926;11.376;2022-08-14T14:37:27;4.25;;;3.88;;
19195;SDS011;9730;48.926;11.376;2022-08-14T14:39:56;6.10;;;4.07;;
19195;SDS011;9730;48.926;11.376;2022-08-14T14:42:24;4.50;;;3.85;;
19195;SDS011;9730;48.926;11.376;2022-08-14T14:44:53;4.28;;;3.70;;
19195;SDS011;9730;48.926;11.376;2022-08-14T14:47:24;5.20;;;3.63;;
19195;SDS011;9730;48.926;11.376;2022-08-14T14:49:51;5.75;;;3.45;;
19195;SDS011;9730;48.926;11.376;2022-08-14T14:52:18;3.85;;;3.45;;
19195;SDS011;9730;48.926;11.376;2022-08-14T14:54:47;5.47;;;3.83;;
19195;SDS011;9730;48.926;11.376;2022-08-14T14:57:16;6.68;;;3.83;;
19195;SDS011;9730;48.926;11.376;2022-08-14T14:59:43;5.28;;;3.70;;
19195;SDS011;9730;48.926;11.376;2022-08-14T15:02:12;3.45;;;3.15;;
19195;SDS011;9730;48.926;11.376;2022-08-14T15:04:56;3.83;;;3.42;;
19195;SDS011;9730;48.926;11.376;2022-08-14T15:07:23;3.80;;;3.40;;
19195;SDS011;9730;48.926;11.376;2022-08-14T15:09:49;3.85;;;3.42;;
19195;SDS011;9730;48.926;11.376;2022-08-14T15:12:17;4.18;;;3.70;;
19195;SDS011;9730;48.926;11.376;2022-08-14T15:14:43;6.47;;;3.33;;
19195;SDS011;9730;48.926;11.376;2022-08-14T15:17:10;5.68;;;3.60;;
19195;SDS011;9730;48.926;11.376;2022-08-14T15:19:37;4.38;;;3.55;;
19195;SDS011;9730;48.926;11.376;2022-08-14T15:22:03;5.63;;;3.58;;
19195;SDS011;9730;48.926;11.376;2022-08-14T15:24:30;5.60;;;3.67;;